createdAt,value
2023-04-16T00:01:50.490Z,8.39
2023-04-16T00:04:24.737Z,8.39
2023-04-16T00:06:57.502Z,8.42
2023-04-16T00:09:30.469Z,8.45
2023-04-16T00:12:04.024Z,8.47
2023-04-16T00:14:36.807Z,8.59
2023-04-16T00:17:09.749Z,8.54
2023-04-16T00:19:44.012Z,8.65
2023-04-16T00:22:17.318Z,8.61
2023-04-16T00:24:50.259Z,8.73
2023-04-16T00:27:23.016Z,8.63
2023-04-16T00:29:56.143Z,8.54
2023-04-16T00:32:29.387Z,8.71
2023-04-16T00:35:04.088Z,8.63
2023-04-16T00:37:36.978Z,8.61
2023-04-16T00:40:10.254Z,8.48
2023-04-16T00:42:43.067Z,8.56
2023-04-16T00:45:16.034Z,8.56
2023-04-16T00:47:48.936Z,8.58
2023-04-16T00:50:23.439Z,8.45
2023-04-16T00:52:57.579Z,8.70
2023-04-16T00:55:30.788Z,8.46
2023-04-16T00:58:04.552Z,8.48
2023-04-16T01:00:37.469Z,8.55
2023-04-16T01:03:10.750Z,8.56
2023-04-16T01:05:46.037Z,8.61
2023-04-16T01:08:19.659Z,8.63
2023-04-16T01:10:52.561Z,8.55
2023-04-16T01:13:25.567Z,8.68
2023-04-16T01:15:58.620Z,8.86
2023-04-16T01:18:31.524Z,8.82
2023-04-16T01:21:06.697Z,8.88
2023-04-16T01:23:39.612Z,8.96
2023-04-16T01:26:12.391Z,8.78
2023-04-16T01:28:45.330Z,8.79
2023-04-16T01:31:18.359Z,8.75
2023-04-16T01:34:09.751Z,8.83
2023-04-16T01:36:44.290Z,8.86
2023-04-16T01:39:19.303Z,8.85
2023-04-16T01:41:52.143Z,8.79
2023-04-16T01:44:25.578Z,8.89
2023-04-16T01:46:58.554Z,8.75
2023-04-16T01:49:31.687Z,8.80
2023-04-16T01:52:08.378Z,8.64
2023-04-16T01:54:41.451Z,8.67
2023-04-16T01:57:14.349Z,8.71
2023-04-16T01:59:47.337Z,9.04
2023-04-16T02:02:20.407Z,8.90
2023-04-16T02:04:53.566Z,8.59
2023-04-16T02:07:28.232Z,8.56
2023-04-16T02:10:01.349Z,8.63
2023-04-16T02:12:34.324Z,8.58
2023-04-16T02:15:08.555Z,8.54
2023-04-16T02:17:42.080Z,8.48
2023-04-16T02:20:18.566Z,8.57
2023-04-16T02:23:01.080Z,8.55
2023-04-16T02:25:34.452Z,8.63
2023-04-16T02:28:08.660Z,8.59
2023-04-16T02:30:45.998Z,8.50
2023-04-16T02:33:21.255Z,8.57
2023-04-16T02:36:02.019Z,8.60
2023-04-16T02:38:37.492Z,8.59
2023-04-16T02:41:10.515Z,8.59
2023-04-16T02:43:43.391Z,8.55
2023-04-16T02:46:16.268Z,8.61
2023-04-16T02:48:49.340Z,8.66
2023-04-16T02:51:22.029Z,8.85
2023-04-16T02:53:56.158Z,8.71
2023-04-16T02:56:28.893Z,8.59
2023-04-16T02:59:01.781Z,8.81
2023-04-16T03:01:35.033Z,8.62
2023-04-16T03:04:07.915Z,8.73
2023-04-16T03:06:40.858Z,8.74
2023-04-16T03:09:16.098Z,8.60
2023-04-16T03:11:48.900Z,8.59
2023-04-16T03:14:21.836Z,8.64
2023-04-16T03:16:54.983Z,8.56
2023-04-16T03:19:27.833Z,8.58
2023-04-16T03:22:02.754Z,8.64
2023-04-16T03:24:38.196Z,8.72
2023-04-16T03:27:11.157Z,8.60
2023-04-16T03:29:43.982Z,8.73
2023-04-16T03:32:17.638Z,8.73
2023-04-16T03:34:50.834Z,8.63
2023-04-16T03:37:24.046Z,8.78
2023-04-16T03:39:58.909Z,8.68
2023-04-16T03:42:31.942Z,8.67
2023-04-16T03:45:05.532Z,8.67
2023-04-16T03:47:38.681Z,8.64
2023-04-16T03:50:13.425Z,8.75
2023-04-16T03:52:49.372Z,8.71
2023-04-16T03:55:25.100Z,8.61
2023-04-16T03:57:58.385Z,8.67
2023-04-16T04:00:32.096Z,8.75
2023-04-16T04:03:14.174Z,8.75
2023-04-16T04:05:47.508Z,8.66
2023-04-16T04:08:24.501Z,8.69
2023-04-16T04:10:59.383Z,8.62
2023-04-16T04:13:32.622Z,8.70
2023-04-16T04:16:06.622Z,8.66
2023-04-16T04:18:39.971Z,8.67
2023-04-16T04:21:13.894Z,8.71
2023-04-16T04:23:49.993Z,8.64
2023-04-16T04:26:25.022Z,8.63
2023-04-16T04:28:59.069Z,8.60
2023-04-16T04:31:31.948Z,8.65
2023-04-16T04:34:05.069Z,8.64
2023-04-16T04:36:38.519Z,8.67
2023-04-16T04:39:11.661Z,8.66
2023-04-16T04:41:48.684Z,8.72
2023-04-16T04:44:21.954Z,8.70
2023-04-16T04:46:55.223Z,8.70
2023-04-16T04:49:28.360Z,8.58
2023-04-16T04:52:01.355Z,8.76
2023-04-16T04:54:34.451Z,8.63
2023-04-16T04:57:08.888Z,8.63
2023-04-16T04:59:42.122Z,8.66
2023-04-16T05:02:16.717Z,8.65
2023-04-16T05:04:49.857Z,8.63
2023-04-16T05:07:23.228Z,8.66
2023-04-16T05:09:56.059Z,8.64
2023-04-16T05:12:30.278Z,8.71
2023-04-16T05:15:03.191Z,8.78
2023-04-16T05:17:36.586Z,8.77
2023-04-16T05:20:10.489Z,8.68
2023-04-16T05:22:43.331Z,8.68
2023-04-16T05:25:17.517Z,8.70
2023-04-16T05:27:51.803Z,8.78
2023-04-16T05:30:24.643Z,8.71
2023-04-16T05:32:57.528Z,8.80
2023-04-16T05:35:30.309Z,8.82
2023-04-16T05:38:04.331Z,8.74
2023-04-16T05:40:37.684Z,8.88
2023-04-16T05:43:12.140Z,8.81
2023-04-16T05:45:44.940Z,9.01
2023-04-16T05:48:17.736Z,9.02
2023-04-16T05:50:50.789Z,9.13
2023-04-16T05:53:23.989Z,9.06
2023-04-16T05:55:56.756Z,9.05
2023-04-16T05:58:30.947Z,9.07
2023-04-16T06:01:04.646Z,9.09
2023-04-16T06:03:37.574Z,9.10
2023-04-16T06:06:10.721Z,8.97
2023-04-16T06:08:43.647Z,9.08
2023-04-16T06:11:16.736Z,9.12
2023-04-16T06:13:51.060Z,9.19
2023-04-16T06:16:24.063Z,9.24
2023-04-16T06:18:56.896Z,9.11
2023-04-16T06:21:29.948Z,8.99
2023-04-16T06:24:02.726Z,9.09
2023-04-16T06:26:35.446Z,8.94
2023-04-16T06:29:09.699Z,8.99
2023-04-16T06:31:42.792Z,9.11
2023-04-16T06:34:16.013Z,9.08
2023-04-16T06:36:48.750Z,9.03
2023-04-16T06:39:22.110Z,9.05
2023-04-16T06:41:54.951Z,9.15
2023-04-16T06:44:29.177Z,9.12
2023-04-16T06:47:02.164Z,9.25
2023-04-16T06:49:35.045Z,9.05
2023-04-16T06:52:08.085Z,9.05
2023-04-16T06:54:40.966Z,9.11
2023-04-16T06:57:13.703Z,9.19
2023-04-16T06:59:47.800Z,9.24
2023-04-16T07:02:20.879Z,9.18
2023-04-16T07:04:53.641Z,9.36
2023-04-16T07:07:26.424Z,9.25
2023-04-16T07:09:59.928Z,9.18
2023-04-16T07:12:33.926Z,9.29
2023-04-16T07:15:12.472Z,9.35
2023-04-16T07:17:45.248Z,9.28
2023-04-16T07:20:18.161Z,9.25
2023-04-16T07:22:51.227Z,9.42
2023-04-16T07:25:24.189Z,9.47
2023-04-16T07:27:57.010Z,9.41
2023-04-16T07:30:34.239Z,9.46
2023-04-16T07:33:07.135Z,9.29
2023-04-16T07:35:39.924Z,9.41
2023-04-16T07:38:12.628Z,9.44
2023-04-16T07:40:45.442Z,9.34
2023-04-16T07:43:18.219Z,9.31
2023-04-16T07:45:52.336Z,9.42
2023-04-16T07:48:25.516Z,9.52
2023-04-16T07:50:58.823Z,9.71
2023-04-16T07:53:31.769Z,9.56
2023-04-16T07:56:04.669Z,9.47
2023-04-16T07:58:37.486Z,9.57
2023-04-16T08:01:11.815Z,9.79
2023-04-16T08:03:44.868Z,9.68
2023-04-16T08:06:17.948Z,9.60
2023-04-16T08:08:50.862Z,9.62
2023-04-16T08:11:24.597Z,9.73
2023-04-16T08:13:57.603Z,9.88
2023-04-16T08:16:33.019Z,9.78
2023-04-16T08:19:05.941Z,9.79
2023-04-16T08:21:38.777Z,9.78
2023-04-16T08:24:12.021Z,9.70
2023-04-16T08:26:44.835Z,9.78
2023-04-16T08:29:18.597Z,9.72
2023-04-16T08:31:53.066Z,9.92
2023-04-16T08:34:26.196Z,9.59
2023-04-16T08:36:59.005Z,9.75
2023-04-16T08:39:31.801Z,9.78
2023-04-16T08:42:06.960Z,9.73
2023-04-16T08:44:48.917Z,9.84
2023-04-16T08:47:26.564Z,10.01
2023-04-16T08:50:00.301Z,10.07
2023-04-16T08:52:33.791Z,10.22
2023-04-16T08:55:13.527Z,10.22
2023-04-16T08:57:54.558Z,10.07
2023-04-16T09:00:28.082Z,10.22
2023-04-16T09:03:03.548Z,10.04
2023-04-16T09:05:37.020Z,10.15
2023-04-16T09:08:10.274Z,10.09
2023-04-16T09:10:44.447Z,10.38
2023-04-16T09:13:20.470Z,10.16
2023-04-16T09:15:54.218Z,10.04
2023-04-16T09:18:29.264Z,10.10
2023-04-16T09:21:02.792Z,10.19
2023-04-16T09:23:36.218Z,10.15
2023-04-16T09:26:09.133Z,10.15
2023-04-16T09:28:43.852Z,10.19
2023-04-16T09:31:18.383Z,10.18
2023-04-16T09:34:06.132Z,10.21
2023-04-16T09:36:38.972Z,10.28
2023-04-16T09:39:20.213Z,10.26
2023-04-16T09:41:54.747Z,10.33
2023-04-16T09:44:36.780Z,10.43
2023-04-16T09:47:10.949Z,10.40
2023-04-16T09:49:47.092Z,10.48
2023-04-16T09:52:21.642Z,10.51
2023-04-16T09:54:55.669Z,10.47
2023-04-16T09:57:28.471Z,10.50
2023-04-16T10:00:04.380Z,10.62
2023-04-16T10:02:41.925Z,10.61
2023-04-16T10:05:18.677Z,10.70
2023-04-16T10:07:52.912Z,10.74
2023-04-16T10:10:26.398Z,10.96
2023-04-16T10:12:59.299Z,10.94
2023-04-16T10:15:32.289Z,10.80
2023-04-16T10:18:06.330Z,10.97
2023-04-16T10:20:40.740Z,11.01
2023-04-16T10:23:14.005Z,11.03
2023-04-16T10:25:49.012Z,11.13
2023-04-16T10:28:22.063Z,11.14
2023-04-16T10:30:57.056Z,11.03
2023-04-16T10:33:32.521Z,11.07
2023-04-16T10:36:12.061Z,10.90
2023-04-16T10:38:48.111Z,11.00
2023-04-16T10:41:21.627Z,10.98
2023-04-16T10:43:54.847Z,10.90
2023-04-16T10:46:31.784Z,10.94
2023-04-16T10:49:15.082Z,10.80
2023-04-16T10:51:56.686Z,10.87
2023-04-16T10:54:31.232Z,10.94
2023-04-16T10:57:06.384Z,10.94
2023-04-16T10:59:40.423Z,10.88
2023-04-16T11:02:15.731Z,10.85
2023-04-16T11:04:50.156Z,10.93
2023-04-16T11:07:34.555Z,10.76
2023-04-16T11:10:08.557Z,10.72
2023-04-16T11:12:44.739Z,10.70
2023-04-16T11:15:19.394Z,10.69
2023-04-16T11:17:52.998Z,10.83
2023-04-16T11:20:27.677Z,10.83
2023-04-16T11:23:02.127Z,10.69
2023-04-16T11:25:35.005Z,10.70
2023-04-16T11:28:07.876Z,10.63
2023-04-16T11:30:41.565Z,10.62
2023-04-16T11:33:14.493Z,10.84
2023-04-16T11:35:57.946Z,10.84
2023-04-16T11:38:37.089Z,11.08
2023-04-16T11:41:11.031Z,11.11
2023-04-16T11:43:44.086Z,10.89
2023-04-16T11:46:26.764Z,10.98
2023-04-16T11:49:00.030Z,11.24
2023-04-16T11:51:33.129Z,11.11
2023-04-16T11:54:10.441Z,11.21
2023-04-16T11:56:47.804Z,11.28
2023-04-16T11:59:23.017Z,11.30
2023-04-16T12:01:57.077Z,11.27
2023-04-16T12:04:30.389Z,11.20
2023-04-16T12:07:11.351Z,11.16
2023-04-16T12:09:47.799Z,11.03
2023-04-16T12:12:28.583Z,10.95
2023-04-16T12:15:03.690Z,11.15
2023-04-16T12:17:37.755Z,11.19
2023-04-16T12:20:12.535Z,11.20
2023-04-16T12:22:47.683Z,11.17
2023-04-16T12:25:22.104Z,11.33
2023-04-16T12:27:56.371Z,11.12
2023-04-16T12:30:30.831Z,11.16
2023-04-16T12:33:17.716Z,11.14
2023-04-16T12:35:51.101Z,11.14
2023-04-16T12:38:25.527Z,11.17
2023-04-16T12:41:02.404Z,11.14
2023-04-16T12:43:35.499Z,11.41
2023-04-16T12:46:08.340Z,11.22
2023-04-16T12:48:41.612Z,11.50
2023-04-16T12:51:14.736Z,11.48
2023-04-16T12:53:47.818Z,11.47
2023-04-16T12:56:22.534Z,11.56
2023-04-16T12:58:55.941Z,11.54
2023-04-16T13:01:29.126Z,11.74
2023-04-16T13:04:02.086Z,11.78
2023-04-16T13:06:36.783Z,11.78
2023-04-16T13:09:10.396Z,11.64
2023-04-16T13:11:44.834Z,11.66
2023-04-16T13:14:18.086Z,11.65
2023-04-16T13:16:50.936Z,11.56
2023-04-16T13:19:23.828Z,11.65
2023-04-16T13:21:56.812Z,11.82
2023-04-16T13:24:29.614Z,11.81
2023-04-16T13:27:03.679Z,11.91
2023-04-16T13:29:37.126Z,12.03
2023-04-16T13:32:09.872Z,12.09
2023-04-16T13:34:42.781Z,11.96
2023-04-16T13:37:15.567Z,12.22
2023-04-16T13:39:48.345Z,12.07
2023-04-16T13:42:22.440Z,12.28
2023-04-16T13:44:55.597Z,12.15
2023-04-16T13:47:28.443Z,12.14
2023-04-16T13:50:01.447Z,12.17
2023-04-16T13:52:34.374Z,12.15
2023-04-16T13:55:09.490Z,11.81
2023-04-16T13:57:43.918Z,11.94
2023-04-16T14:00:18.147Z,11.88
2023-04-16T14:02:51.352Z,11.94
2023-04-16T14:05:26.996Z,11.79
2023-04-16T14:08:00.192Z,11.70
2023-04-16T14:10:33.436Z,12.01
2023-04-16T14:13:07.633Z,11.88
2023-04-16T14:15:40.507Z,11.67
2023-04-16T14:18:13.301Z,11.29
2023-04-16T14:20:46.111Z,11.34
2023-04-16T14:23:18.911Z,11.27
2023-04-16T14:25:51.700Z,11.08
2023-04-16T14:28:26.026Z,11.03
2023-04-16T14:30:59.018Z,10.95
2023-04-16T14:33:32.371Z,11.29
2023-04-16T14:36:05.839Z,11.15
2023-04-16T14:38:38.906Z,11.55
2023-04-16T14:41:12.517Z,11.31
2023-04-16T14:43:46.764Z,11.32
2023-04-16T14:46:19.803Z,11.15
2023-04-16T14:48:52.749Z,11.11
2023-04-16T14:51:26.443Z,11.06
2023-04-16T14:53:59.373Z,10.97
2023-04-16T14:56:32.293Z,11.17
2023-04-16T14:59:06.851Z,11.11
2023-04-16T15:01:41.263Z,11.28
2023-04-16T15:04:14.478Z,11.13
2023-04-16T15:06:47.508Z,11.27
2023-04-16T15:09:20.656Z,11.13
2023-04-16T15:11:53.463Z,10.90
2023-04-16T15:14:27.753Z,11.00
2023-04-16T15:17:00.901Z,10.95
2023-04-16T15:19:33.783Z,10.78
2023-04-16T15:22:06.743Z,10.83
2023-04-16T15:24:39.561Z,10.88
2023-04-16T15:27:13.914Z,10.71
2023-04-16T15:29:49.497Z,10.72
2023-04-16T15:32:22.466Z,10.66
2023-04-16T15:34:55.400Z,10.87
2023-04-16T15:37:28.239Z,11.04
2023-04-16T15:40:01.173Z,10.97
2023-04-16T15:42:34.057Z,10.74
2023-04-16T15:45:08.875Z,10.84
2023-04-16T15:47:42.386Z,11.03
2023-04-16T15:50:15.349Z,11.06
2023-04-16T15:52:48.698Z,10.94
2023-04-16T15:55:21.588Z,11.07
2023-04-16T15:57:54.433Z,10.96
2023-04-16T16:00:28.956Z,11.10
2023-04-16T16:03:01.965Z,10.99
2023-04-16T16:05:35.364Z,10.96
2023-04-16T16:08:08.193Z,10.71
2023-04-16T16:10:41.258Z,10.63
2023-04-16T16:13:17.969Z,10.57
2023-04-16T16:15:52.125Z,10.86
2023-04-16T16:18:24.933Z,10.85
2023-04-16T16:20:59.003Z,10.69
2023-04-16T16:23:31.905Z,10.68
2023-04-16T16:26:06.099Z,10.62
2023-04-16T16:28:38.937Z,10.52
2023-04-16T16:31:13.506Z,10.63
2023-04-16T16:33:46.395Z,10.71
2023-04-16T16:36:19.391Z,10.69
2023-04-16T16:38:52.486Z,10.57
2023-04-16T16:41:25.483Z,10.73
2023-04-16T16:43:59.359Z,10.81
2023-04-16T16:46:33.926Z,10.73
2023-04-16T16:49:09.333Z,10.53
2023-04-16T16:51:42.645Z,10.57
2023-04-16T16:54:16.041Z,10.42
2023-04-16T16:56:48.792Z,10.47
2023-04-16T16:59:21.692Z,10.42
2023-04-16T17:01:55.940Z,10.46
2023-04-16T17:04:28.943Z,10.26
2023-04-16T17:07:02.064Z,10.24
2023-04-16T17:09:34.963Z,10.16
2023-04-16T17:12:08.100Z,10.26
2023-04-16T17:14:43.863Z,10.29
2023-04-16T17:17:18.397Z,10.25
2023-04-16T17:19:51.687Z,10.17
2023-04-16T17:22:24.729Z,10.12
2023-04-16T17:24:57.848Z,10.37
2023-04-16T17:27:33.731Z,10.20
2023-04-16T17:30:10.515Z,10.19
2023-04-16T17:32:45.216Z,10.24
2023-04-16T17:35:18.292Z,10.09
2023-04-16T17:37:52.809Z,10.32
2023-04-16T17:40:26.588Z,10.12
2023-04-16T17:42:59.727Z,10.07
2023-04-16T17:45:36.402Z,10.08
2023-04-16T17:48:11.099Z,10.06
2023-04-16T17:50:44.283Z,9.88
2023-04-16T17:53:17.313Z,10.05
2023-04-16T17:55:56.522Z,9.99
2023-04-16T17:58:32.915Z,9.98
2023-04-16T18:01:06.209Z,9.94
2023-04-16T18:03:42.039Z,9.93
2023-04-16T18:06:14.915Z,10.17
2023-04-16T18:08:47.797Z,9.90
2023-04-16T18:11:21.118Z,9.95
2023-04-16T18:13:54.123Z,9.95
2023-04-16T18:16:27.088Z,9.91
2023-04-16T18:19:01.400Z,10.02
2023-04-16T18:21:35.438Z,9.99
2023-04-16T18:24:08.920Z,9.95
2023-04-16T18:26:42.039Z,9.78
2023-04-16T18:29:16.857Z,10.04
2023-04-16T18:31:50.879Z,10.07
2023-04-16T18:34:25.562Z,9.90
2023-04-16T18:36:58.578Z,9.78
2023-04-16T18:39:33.884Z,9.88
2023-04-16T18:42:06.806Z,9.72
2023-04-16T18:44:39.889Z,9.90
2023-04-16T18:47:12.691Z,9.95
2023-04-16T18:49:46.925Z,9.86
2023-04-16T18:52:19.850Z,9.85
2023-04-16T18:54:53.097Z,9.89
2023-04-16T18:57:26.005Z,9.88
2023-04-16T18:59:58.893Z,9.98
2023-04-16T19:02:32.502Z,9.89
2023-04-16T19:05:08.418Z,9.93
2023-04-16T19:07:41.792Z,10.06
2023-04-16T19:10:14.869Z,9.87
2023-04-16T19:12:47.906Z,9.96
2023-04-16T19:15:21.062Z,9.65
2023-04-16T19:17:54.401Z,9.93
2023-04-16T19:20:28.928Z,9.71
2023-04-16T19:23:01.831Z,9.88
2023-04-16T19:25:34.607Z,9.89
2023-04-16T19:28:07.449Z,9.56
2023-04-16T19:30:40.530Z,9.61
2023-04-16T19:33:13.334Z,9.60
2023-04-16T19:35:47.743Z,9.69
2023-04-16T19:38:21.154Z,9.76
2023-04-16T19:40:55.384Z,9.50
2023-04-16T19:43:30.741Z,9.65
2023-04-16T19:46:04.177Z,9.57
2023-04-16T19:48:37.387Z,9.64
2023-04-16T19:51:11.902Z,9.68
2023-04-16T19:53:44.753Z,9.63
2023-04-16T19:56:18.062Z,9.61
2023-04-16T19:58:50.984Z,9.59
2023-04-16T20:01:25.095Z,9.80
2023-04-16T20:03:58.318Z,9.77
2023-04-16T20:06:32.772Z,9.86
2023-04-16T20:09:06.068Z,9.77
2023-04-16T20:11:39.078Z,9.68
2023-04-16T20:14:12.318Z,9.72
2023-04-16T20:16:45.161Z,9.64
2023-04-16T20:19:18.355Z,9.73
2023-04-16T20:21:52.621Z,9.88
2023-04-16T20:24:26.528Z,9.77
2023-04-16T20:26:59.813Z,9.92
2023-04-16T20:29:32.611Z,9.64
2023-04-16T20:32:07.399Z,9.66
2023-04-16T20:34:40.570Z,9.71
2023-04-16T20:37:14.655Z,9.69
2023-04-16T20:39:50.063Z,9.63
2023-04-16T20:42:23.119Z,9.70
2023-04-16T20:44:56.879Z,9.81
2023-04-16T20:47:29.785Z,9.63
2023-04-16T20:50:02.939Z,9.49
2023-04-16T20:52:37.392Z,9.40
2023-04-16T20:55:10.702Z,9.41
2023-04-16T20:57:43.421Z,9.49
2023-04-16T21:00:17.669Z,9.71
2023-04-16T21:02:50.654Z,9.47
2023-04-16T21:05:26.499Z,9.37
2023-04-16T21:08:01.009Z,9.53
2023-04-16T21:10:34.926Z,9.39
2023-04-16T21:13:07.738Z,9.61
2023-04-16T21:15:41.710Z,9.52
2023-04-16T21:18:14.765Z,9.39
2023-04-16T21:20:47.730Z,9.55
2023-04-16T21:23:22.111Z,9.48
2023-04-16T21:25:56.681Z,9.37
2023-04-16T21:28:29.980Z,9.24
2023-04-16T21:31:02.854Z,9.35
2023-04-16T21:33:36.159Z,9.47
2023-04-16T21:36:10.117Z,9.33
2023-04-16T21:38:44.690Z,9.42
2023-04-16T21:41:17.968Z,9.33
2023-04-16T21:43:51.050Z,9.39
2023-04-16T21:46:25.448Z,9.48
2023-04-16T21:48:58.258Z,9.32
2023-04-16T21:51:31.541Z,9.51
2023-04-16T21:54:05.960Z,9.73
2023-04-16T21:56:39.066Z,9.66
2023-04-16T21:59:12.247Z,9.57
2023-04-16T22:01:45.210Z,9.62
2023-04-16T22:04:17.975Z,9.46
2023-04-16T22:06:55.735Z,9.53
2023-04-16T22:09:29.936Z,9.57
2023-04-16T22:12:03.004Z,9.71
2023-04-16T22:14:36.083Z,9.72
2023-04-16T22:17:09.372Z,9.66
2023-04-16T22:19:42.914Z,9.68
2023-04-16T22:22:15.980Z,9.77
2023-04-16T22:24:50.076Z,9.73
2023-04-16T22:27:23.323Z,9.80
2023-04-16T22:29:56.179Z,9.65
2023-04-16T22:32:30.298Z,9.68
2023-04-16T22:35:03.489Z,9.83
2023-04-16T22:37:36.968Z,9.75
2023-04-16T22:40:12.184Z,9.77
2023-04-16T22:42:45.455Z,9.75
2023-04-16T22:45:18.480Z,9.72
2023-04-16T22:47:51.641Z,9.71
2023-04-16T22:50:24.417Z,9.36
2023-04-16T22:52:57.185Z,9.60
2023-04-16T22:55:31.555Z,9.49
2023-04-16T22:58:04.480Z,9.46
2023-04-16T23:00:37.551Z,9.41
2023-04-16T23:03:10.673Z,9.40
2023-04-16T23:05:43.519Z,9.32
2023-04-16T23:08:16.300Z,9.53
2023-04-16T23:10:50.479Z,9.30
2023-04-16T23:13:23.794Z,9.37
2023-04-16T23:15:56.615Z,9.27
2023-04-16T23:18:29.769Z,9.11
2023-04-16T23:21:02.671Z,9.30
2023-04-16T23:23:35.532Z,9.42
2023-04-16T23:26:09.606Z,9.28
2023-04-16T23:28:42.346Z,9.10
2023-04-16T23:31:15.760Z,9.07
2023-04-16T23:33:48.617Z,9.11
2023-04-16T23:36:21.457Z,8.94
2023-04-16T23:38:54.541Z,9.00
2023-04-16T23:41:28.719Z,9.13
2023-04-16T23:44:01.622Z,8.92
2023-04-16T23:46:34.997Z,8.88
2023-04-16T23:49:07.967Z,9.20
2023-04-16T23:51:40.667Z,9.09
2023-04-16T23:54:13.414Z,8.97
2023-04-16T23:56:47.595Z,8.91
2023-04-16T23:59:20.818Z,8.97
